Time;durP1;ratioP1;P1;durP2;ratioP2;P2;SDS_P1;SDS_P2;PMS_P1;PMS_P2;Temp;Humidity;BMP_temperature;BMP_pressure;BME280_temperature;BME280_humidity;BME280_pressure;Samples;Min_cycle;Max_cycle;Signal;HPM_P1;HPM_P2
2021/06/02 00:00:27;;;;;;;;;;;;;;;;;;4988292;28;20026;-88
2021/06/02 00:02:54;;;;;;;;;;;;;;;;;;4989116;28;19910;-88
2021/06/02 00:05:20;;;;;;;;;;;;;;;;;;4989295;28;19902;-89
2021/06/02 00:07:45;;;;;;;;;;;;;;;;;;4987872;28;19917;-89
2021/06/02 00:10:10;;;;;;;;;;;;;;;;;;4987582;28;19948;-88
2021/06/02 00:12:35;;;;;;;;;;;;;;;;;;4988238;28;20008;-88
2021/06/02 00:15:00;;;;;;;;;;;;;;;;;;4986404;28;19910;-90
2021/06/02 00:17:25;;;;;;;;;;;;;;;;;;4988292;28;19910;-90
2021/06/02 00:19:50;;;;;;;;;;;;;;;;;;4986404;28;19911;-89
2021/06/02 00:22:16;;;;;;;;;;;;;;;;;;4986618;28;19941;-90
2021/06/02 00:24:41;;;;;;;;;;;;;;;;;;4986741;28;19917;-88
2021/06/02 00:27:06;;;;;;;;;;;;;;;;;;4986332;28;19917;-87
2021/06/02 00:29:31;;;;;;;;;;;;;;;;;;4988379;28;19910;-88
2021/06/02 00:31:56;;;;;;;;;;;;;;;;;;4989494;28;19918;-89
2021/06/02 00:34:21;;;;;;;;;;;;;;;;;;4988338;28;19934;-90
2021/06/02 00:36:46;;;;;;;;;;;;;;;;;;4986131;28;20371;-89
2021/06/02 00:39:12;;;;;;;;;;;;;;;;;;4987519;28;19952;-88
2021/06/02 00:41:37;;;;;;;;;;;;;;;;;;4986749;28;19910;-89
2021/06/02 00:44:02;;;;;;;;;;;;;;;;;;4986271;28;19910;-88
2021/06/02 00:46:27;;;;;;;;;;;;;;;;;;4986621;28;19961;-89
2021/06/02 00:48:52;;;;;;;;;;;;;;;;;;4986633;28;20422;-89
2021/06/02 00:51:18;;;;;;;;;;;;;;;;;;4986546;28;19943;-90
2021/06/02 00:53:46;;;;;;;;;;;;;;;;;;4986820;28;19938;-89
2021/06/02 00:56:11;;;;;;;;;;;;;;;;;;4986719;28;19934;-89
2021/06/02 00:58:36;;;;;;;;;;;;;;;;;;4986712;28;19910;-89
2021/06/02 01:01:03;;;;;;;;;;;;;;;;;;4989188;28;19948;-92
2021/06/02 01:03:28;;;;;;;;;;;;;;;;;;4988271;28;19910;-89
2021/06/02 01:05:53;;;;;;;;;;;;;;;;;;4987886;28;19993;-90
2021/06/02 01:08:21;;;;;;;;;;;;;;;;;;4988199;28;19906;-90
2021/06/02 01:10:46;;;;;;;;;;;;;;;;;;4986891;28;19918;-88
2021/06/02 01:13:11;;;;;;;;;;;;;;;;;;4987255;28;20003;-90
2021/06/02 01:15:36;;;;;;;;;;;;;;;;;;4985366;28;19921;-91
2021/06/02 01:18:01;;;;;;;;;;;;;;;;;;4985933;28;20046;-90
2021/06/02 01:20:27;;;;;;;;;;;;;;;;;;4984988;28;19965;-89
2021/06/02 01:22:52;;;;;;;;;;;;;;;;;;4984760;28;19919;-91
2021/06/02 01:25:17;;;;;;;;;;;;;;;;;;4986622;28;19917;-89
2021/06/02 01:27:42;;;;;;;;;;;;;;;;;;4986620;28;19914;-88
2021/06/02 01:30:09;;;;;;;;;;;;;;;;;;4985249;28;19910;-89
2021/06/02 01:32:34;;;;;;;;;;;;;;;;;;4985096;28;19921;-89
2021/06/02 01:34:59;;;;;;;;;;;;;;;;;;4985503;28;19910;-89
2021/06/02 01:37:24;;;;;;;;;;;;;;;;;;4986323;28;19918;-89
2021/06/02 01:39:49;;;;;;;;;;;;;;;;;;4985665;28;19977;-90
2021/06/02 01:42:14;;;;;;;;;;;;;;;;;;4986371;28;19921;-89
2021/06/02 01:44:40;;;;;;;;;;;;;;;;;;4986226;28;19910;-88
2021/06/02 01:47:05;;;;;;;;;;;;;;;;;;4986741;28;19949;-91
2021/06/02 01:49:30;;;;;;;;;;;;;;;;;;4986016;28;19917;-89
2021/06/02 01:51:55;;;;;;;;;;;;;;;;;;4987662;28;19918;-89
2021/06/02 01:54:20;;;;;;;;;;;;;;;;;;4986286;28;19918;-89
2021/06/02 01:56:45;;;;;;;;;;;;;;;;;;4989882;28;19917;-88
2021/06/02 01:59:10;;;;;;;;;;;;;;;;;;4990434;28;19917;-88
2021/06/02 02:01:35;;;;;;;;;;;;;;;;;;4989894;28;19921;-88
2021/06/02 02:04:00;;;;;;;;;;;;;;;;;;4988676;28;19934;-90
2021/06/02 02:06:26;;;;;;;;;;;;;;;;;;4988802;28;20049;-88
2021/06/02 02:08:51;;;;;;;;;;;;;;;;;;4988592;28;19940;-89
2021/06/02 02:11:16;;;;;;;;;;;;;;;;;;4989221;28;19921;-88
2021/06/02 02:13:41;;;;;;;;;;;;;;;;;;4990243;28;19910;-88
2021/06/02 02:16:06;;;;;;;;;;;;;;;;;;4990526;28;19910;-89
2021/06/02 02:18:31;;;;;;;;;;;;;;;;;;4990231;28;20053;-88
2021/06/02 02:20:57;;;;;;;;;;;;;;;;;;4991331;28;19973;-89
2021/06/02 02:23:22;;;;;;;;;;;;;;;;;;4992768;28;19918;-90
2021/06/02 02:25:47;;;;;;;;;;;;;;;;;;4990668;28;19910;-90
2021/06/02 02:28:13;;;;;;;;;;;;;;;;;;4988982;28;19910;-89
2021/06/02 02:30:38;;;;;;;;;;;;;;;;;;4990572;28;19941;-90
2021/06/02 02:33:03;;;;;;;;;;;;;;;;;;4989527;28;19910;-89
2021/06/02 02:35:29;;;;;;;;;;;;;;;;;;4988693;28;19965;-89
2021/06/02 02:37:54;;;;;;;;;;;;;;;;;;4987933;28;19972;-91
2021/06/02 02:40:19;;;;;;;;;;;;;;;;;;4988210;28;20000;-89
2021/06/02 02:42:44;;;;;;;;;;;;;;;;;;4988069;28;20009;-90
2021/06/02 02:45:09;;;;;;;;;;;;;;;;;;4987872;28;19949;-90
2021/06/02 02:47:34;;;;;;;;;;;;;;;;;;4987532;28;19924;-88
2021/06/02 02:50:00;;;;;;;;;;;;;;;;;;4987578;28;19917;-89
2021/06/02 02:52:25;;;;;;;;;;;;;;;;;;4987872;28;19918;-89
2021/06/02 02:54:50;;;;;;;;;;;;;;;;;;4987883;28;19989;-88
2021/06/02 02:57:15;;;;;;;;;;;;;;;;;;4987906;28;19910;-89
2021/06/02 02:59:40;;;;;;;;;;;;;;;;;;4988316;28;19911;-89
2021/06/02 03:02:05;;;;;;;;;;;;;;;;;;4987544;28;19917;-86
2021/06/02 03:04:31;;;;;;;;;;;;;;;;;;4987371;28;19926;-88
2021/06/02 03:06:56;;;;;;;;;;;;;;;;;;4987402;28;19922;-90
2021/06/02 03:09:23;;;;;;;;;;;;;;;;;;4987529;28;19910;-89
2021/06/02 03:11:48;;;;;;;;;;;;;;;;;;4986625;28;19949;-88
2021/06/02 03:14:13;;;;;;;;;;;;;;;;;;4987134;28;19921;-89
2021/06/02 03:16:39;;;;;;;;;;;;;;;;;;4987461;28;19981;-88
2021/06/02 03:19:04;;;;;;;;;;;;;;;;;;4987159;28;19914;-89
2021/06/02 03:21:29;;;;;;;;;;;;;;;;;;4987015;28;19917;-89
2021/06/02 03:23:54;;;;;;;;;;;;;;;;;;4987109;28;19910;-89
2021/06/02 03:26:19;;;;;;;;;;;;;;;;;;4986901;28;19910;-89
2021/06/02 03:28:45;;;;;;;;;;;;;;;;;;4986245;28;19914;-88
2021/06/02 03:31:10;;;;;;;;;;;;;;;;;;4987153;28;19918;-89
2021/06/02 03:33:35;;;;;;;;;;;;;;;;;;4987224;28;19926;-88
2021/06/02 03:36:00;;;;;;;;;;;;;;;;;;4985144;28;19989;-87
2021/06/02 03:38:25;;;;;;;;;;;;;;;;;;4987655;28;20030;-90
2021/06/02 03:40:50;;;;;;;;;;;;;;;;;;4987051;28;19910;-89
2021/06/02 03:43:16;;;;;;;;;;;;;;;;;;4986439;28;19933;-87
2021/06/02 03:45:41;;;;;;;;;;;;;;;;;;4989193;28;20005;-90
2021/06/02 03:48:06;;;;;;;;;;;;;;;;;;4987557;28;19910;-90
2021/06/02 03:50:31;;;;;;;;;;;;;;;;;;4986276;28;19922;-88
2021/06/02 03:52:56;;;;;;;;;;;;;;;;;;4989655;28;20014;-89
2021/06/02 03:55:21;;;;;;;;;;;;;;;;;;4988425;28;19910;-90
2021/06/02 03:57:47;;;;;;;;;;;;;;;;;;4986895;28;19969;-89
2021/06/02 04:00:12;;;;;;;;;;;;;;;;;;4986815;28;19964;-89
2021/06/02 04:02:37;;;;;;;;;;;;;;;;;;4988891;28;19968;-88
2021/06/02 04:05:03;;;;;;;;;;;;;;;;;;4987977;28;19914;-89
2021/06/02 04:07:28;;;;;;;;;;;;;;;;;;4986665;28;19954;-89
2021/06/02 04:09:56;;;;;;;;;;;;;;;;;;4986353;28;20259;-88
2021/06/02 04:12:21;;;;;;;;;;;;;;;;;;4987431;28;19918;-89
2021/06/02 04:14:46;;;;;;;;;;;;;;;;;;4988642;28;19949;-86
2021/06/02 04:17:12;;;;;;;;;;;;;;;;;;4987276;28;19969;-89
2021/06/02 04:19:38;;;;;;;;;;;;;;;;;;4986659;28;19910;-88
2021/06/02 04:22:03;;;;;;;;;;;;;;;;;;4988556;28;19973;-89
2021/06/02 04:24:28;;;;;;;;;;;;;;;;;;4986544;28;19911;-89
2021/06/02 04:26:53;;;;;;;;;;;;;;;;;;4986903;28;19932;-90
2021/06/02 04:29:18;;;;;;;;;;;;;;;;;;4985538;28;20004;-90
2021/06/02 04:31:43;;;;;;;;;;;;;;;;;;4986736;28;19922;-90
2021/06/02 04:34:08;;;;;;;;;;;;;;;;;;4986833;28;19957;-89
2021/06/02 04:36:33;;;;;;;;;;;;;;;;;;4987697;28;19918;-87
2021/06/02 04:38:59;;;;;;;;;;;;;;;;;;4983633;28;19910;-89
2021/06/02 04:41:24;;;;;;;;;;;;;;;;;;4983099;28;19942;-90
2021/06/02 04:43:50;;;;;;;;;;;;;;;;;;4987311;28;19917;-90
2021/06/02 04:46:15;;;;;;;;;;;;;;;;;;4989526;28;19969;-89
2021/06/02 04:48:40;;;;;;;;;;;;;;;;;;4988176;28;20016;-91
2021/06/02 04:51:05;;;;;;;;;;;;;;;;;;4986489;28;19918;-91
2021/06/02 04:53:31;;;;;;;;;;;;;;;;;;4988472;28;19917;-90
2021/06/02 04:55:56;;;;;;;;;;;;;;;;;;4989398;28;19950;-89
2021/06/02 04:58:22;;;;;;;;;;;;;;;;;;4988011;28;19914;-94
2021/06/02 05:00:47;;;;;;;;;;;;;;;;;;4986968;28;19990;-92
2021/06/02 05:03:13;;;;;;;;;;;;;;;;;;4989230;28;19911;-92
2021/06/02 05:05:38;;;;;;;;;;;;;;;;;;4988831;28;19914;-90
2021/06/02 05:08:03;;;;;;;;;;;;;;;;;;4990989;28;20020;-90
2021/06/02 05:10:28;;;;;;;;;;;;;;;;;;4986466;28;20370;-90
2021/06/02 05:12:55;;;;;;;;;;;;;;;;;;4991073;28;19917;-90
2021/06/02 05:15:21;;;;;;;;;;;;;;;;;;4988411;28;19983;-93
2021/06/02 05:20:20;;;;;;;;;;;;;;;;;;4985032;28;19922;-90
2021/06/02 05:22:45;;;;;;;;;;;;;;;;;;4985134;28;19911;-90
2021/06/02 05:25:10;;;;;;;;;;;;;;;;;;4986908;28;19933;-89
2021/06/02 05:27:35;;;;;;;;;;;;;;;;;;4990030;28;19938;-91
2021/06/02 05:30:02;;;;;;;;;;;;;;;;;;4991818;28;19937;-91
2021/06/02 05:32:27;;;;;;;;;;;;;;;;;;4993307;28;19929;-88
2021/06/02 05:34:52;;;;;;;;;;;;;;;;;;4994383;28;19910;-89
2021/06/02 05:37:17;;;;;;;;;;;;;;;;;;4990344;28;19918;-90
2021/06/02 05:39:43;;;;;;;;;;;;;;;;;;4986464;28;19939;-90
2021/06/02 05:42:08;;;;;;;;;;;;;;;;;;4986761;28;20371;-90
2021/06/02 05:44:35;;;;;;;;;;;;;;;;;;4987441;28;19976;-90
2021/06/02 05:47:00;;;;;;;;;;;;;;;;;;4986371;28;19962;-90
2021/06/02 05:49:25;;;;;;;;;;;;;;;;;;4987238;28;20355;-91
2021/06/02 05:51:56;;;;;;;;;;;;;;;;;;4987127;28;19998;-87
2021/06/02 05:54:21;;;;;;;;;;;;;;;;;;4981927;28;20406;-82
2021/06/02 05:56:46;;;;;;;;;;;;;;;;;;4981033;28;20352;-84
2021/06/02 05:59:12;;;;;;;;;;;;;;;;;;4979032;28;20379;-86
2021/06/02 06:01:37;;;;;;;;;;;;;;;;;;4978859;28;19910;-83
2021/06/02 06:04:02;;;;;;;;;;;;;;;;;;4984296;28;19910;-86
2021/06/02 06:06:28;;;;;;;;;;;;;;;;;;4980981;28;19910;-86
2021/06/02 06:08:53;;;;;;;;;;;;;;;;;;4982147;28;19910;-87
2021/06/02 06:11:18;;;;;;;;;;;;;;;;;;4983213;28;19953;-85
2021/06/02 06:13:43;;;;;;;;;;;;;;;;;;4982810;28;19917;-89
2021/06/02 06:16:09;;;;;;;;;;;;;;;;;;4984813;28;19914;-90
2021/06/02 06:18:34;;;;;;;;;;;;;;;;;;4984102;28;19968;-87
2021/06/02 06:20:59;;;;;;;;;;;;;;;;;;4982048;28;19921;-86
2021/06/02 06:23:24;;;;;;;;;;;;;;;;;;4979834;28;19914;-84
2021/06/02 06:25:49;;;;;;;;;;;;;;;;;;4981108;28;19918;-83
2021/06/02 06:28:14;;;;;;;;;;;;;;;;;;4980431;28;19916;-83
2021/06/02 06:30:40;;;;;;;;;;;;;;;;;;4981228;28;19922;-89
2021/06/02 06:33:05;;;;;;;;;;;;;;;;;;4983357;28;19911;-85
2021/06/02 06:35:30;;;;;;;;;;;;;;;;;;4979545;28;19906;-84
2021/06/02 06:37:55;;;;;;;;;;;;;;;;;;4978952;28;19917;-84
2021/06/02 06:40:20;;;;;;;;;;;;;;;;;;4975179;28;19906;-84
2021/06/02 06:42:49;;;;;;;;;;;;;;;;;;4977050;28;20371;-83
2021/06/02 06:45:16;;;;;;;;;;;;;;;;;;4979734;28;19973;-82
2021/06/02 06:47:41;;;;;;;;;;;;;;;;;;4978798;28;19933;-83
2021/06/02 06:50:06;;;;;;;;;;;;;;;;;;4979210;28;19910;-83
2021/06/02 06:52:31;;;;;;;;;;;;;;;;;;4979527;28;19918;-83
2021/06/02 06:54:56;;;;;;;;;;;;;;;;;;4978999;28;19910;-82
2021/06/02 06:57:21;;;;;;;;;;;;;;;;;;4979157;28;19918;-83
2021/06/02 06:59:47;;;;;;;;;;;;;;;;;;4980008;28;19910;-83
2021/06/02 07:02:12;;;;;;;;;;;;;;;;;;4980590;28;19985;-83
2021/06/02 07:04:37;;;;;;;;;;;;;;;;;;4979001;28;19911;-84
2021/06/02 07:07:02;;;;;;;;;;;;;;;;;;4978781;28;19997;-83
2021/06/02 07:09:27;;;;;;;;;;;;;;;;;;4978625;28;19965;-85
2021/06/02 07:11:53;;;;;;;;;;;;;;;;;;4978477;28;19973;-84
2021/06/02 07:14:18;;;;;;;;;;;;;;;;;;4978422;28;19917;-85
2021/06/02 07:16:43;;;;;;;;;;;;;;;;;;4979689;28;19911;-85
2021/06/02 07:19:08;;;;;;;;;;;;;;;;;;4977674;28;19910;-85
2021/06/02 07:21:33;;;;;;;;;;;;;;;;;;4979464;28;19970;-83
2021/06/02 07:23:58;;;;;;;;;;;;;;;;;;4976923;28;19941;-83
2021/06/02 07:26:23;;;;;;;;;;;;;;;;;;4977387;28;19961;-84
2021/06/02 07:28:49;;;;;;;;;;;;;;;;;;4973893;28;19965;-86
2021/06/02 07:31:14;;;;;;;;;;;;;;;;;;4972654;28;19922;-88
2021/06/02 07:33:39;;;;;;;;;;;;;;;;;;4981488;28;19910;-88
2021/06/02 07:36:04;;;;;;;;;;;;;;;;;;4982455;28;19920;-87
2021/06/02 07:38:29;;;;;;;;;;;;;;;;;;4965996;28;19911;-86
2021/06/02 07:40:55;;;;;;;;;;;;;;;;;;4949204;29;19915;-87
2021/06/02 07:43:20;;;;;;;;;;;;;;;;;;4946880;28;20004;-89
2021/06/02 07:45:45;;;;;;;;;;;;;;;;;;4978175;28;20075;-85
2021/06/02 07:48:10;;;;;;;;;;;;;;;;;;4963687;28;20275;-86
2021/06/02 07:50:35;;;;;;;;;;;;;;;;;;4980893;28;20295;-87
2021/06/02 07:53:00;;;;;;;;;;;;;;;;;;4962898;28;19918;-84
2021/06/02 07:55:26;;;;;;;;;;;;;;;;;;4949819;28;20005;-87
2021/06/02 07:57:51;;;;;;;;;;;;;;;;;;4951223;28;19921;-88
2021/06/02 08:00:16;;;;;;;;;;;;;;;;;;4955340;28;19910;-85
2021/06/02 08:02:41;;;;;;;;;;;;;;;;;;4958742;28;20013;-85
2021/06/02 08:05:06;;;;;;;;;;;;;;;;;;4973301;28;19981;-83
2021/06/02 08:07:31;;;;;;;;;;;;;;;;;;4948830;29;19911;-85
2021/06/02 08:09:57;;;;;;;;;;;;;;;;;;4965301;29;19917;-84
2021/06/02 08:12:22;;;;;;;;;;;;;;;;;;4954289;28;19922;-83
2021/06/02 08:14:48;;;;;;;;;;;;;;;;;;4955484;28;19920;-86
2021/06/02 08:17:13;;;;;;;;;;;;;;;;;;4968705;28;19961;-83
2021/06/02 08:19:38;;;;;;;;;;;;;;;;;;4961614;28;19910;-86
2021/06/02 08:22:03;;;;;;;;;;;;;;;;;;4984118;28;19910;-91
2021/06/02 08:24:30;;;;;;;;;;;;;;;;;;4966470;28;19914;-86
2021/06/02 08:26:55;;;;;;;;;;;;;;;;;;4966342;28;20003;-88
2021/06/02 08:29:23;;;;;;;;;;;;;;;;;;4963548;28;19914;-86
2021/06/02 08:31:49;;;;;;;;;;;;;;;;;;4951595;29;20017;-85
2021/06/02 08:34:14;;;;;;;;;;;;;;;;;;4947032;28;19914;-83
2021/06/02 08:36:39;;;;;;;;;;;;;;;;;;4959689;28;20017;-86
2021/06/02 08:39:05;;;;;;;;;;;;;;;;;;4961330;28;19918;-88
2021/06/02 08:41:31;;;;;;;;;;;;;;;;;;4982499;28;19921;-88
2021/06/02 08:43:56;;;;;;;;;;;;;;;;;;4984287;28;19910;-90
2021/06/02 08:46:21;;;;;;;;;;;;;;;;;;4966636;28;19922;-88
2021/06/02 08:48:46;;;;;;;;;;;;;;;;;;4966957;28;19910;-88
2021/06/02 08:51:11;;;;;;;;;;;;;;;;;;4967660;28;19929;-89
2021/06/02 08:53:36;;;;;;;;;;;;;;;;;;4967572;28;20016;-86
2021/06/02 08:56:01;;;;;;;;;;;;;;;;;;4965850;28;19922;-87
2021/06/02 08:58:26;;;;;;;;;;;;;;;;;;4965580;28;20004;-86
2021/06/02 09:00:53;;;;;;;;;;;;;;;;;;4983365;28;19911;-90
2021/06/02 09:03:18;;;;;;;;;;;;;;;;;;4967269;28;19910;-87
2021/06/02 09:05:43;;;;;;;;;;;;;;;;;;4971155;28;20391;-86
2021/06/02 09:08:08;;;;;;;;;;;;;;;;;;4972837;28;19910;-87
2021/06/02 09:10:33;;;;;;;;;;;;;;;;;;4975964;28;19910;-85
2021/06/02 09:12:59;;;;;;;;;;;;;;;;;;4987064;28;20337;-89
2021/06/02 09:15:24;;;;;;;;;;;;;;;;;;4970398;28;19914;-87
2021/06/02 09:17:49;;;;;;;;;;;;;;;;;;4985175;28;19921;-85
2021/06/02 09:20:15;;;;;;;;;;;;;;;;;;4970542;28;19914;-87
2021/06/02 09:22:40;;;;;;;;;;;;;;;;;;4971924;28;19910;-86
2021/06/02 09:25:05;;;;;;;;;;;;;;;;;;4959269;28;19922;-87
2021/06/02 09:27:30;;;;;;;;;;;;;;;;;;4958853;28;19924;-87
2021/06/02 09:29:55;;;;;;;;;;;;;;;;;;4973417;28;20039;-86
2021/06/02 09:32:20;;;;;;;;;;;;;;;;;;4956751;28;19918;-86
2021/06/02 09:34:46;;;;;;;;;;;;;;;;;;4955813;28;19917;-87
2021/06/02 09:37:11;;;;;;;;;;;;;;;;;;4955768;28;19918;-86
2021/06/02 09:39:36;;;;;;;;;;;;;;;;;;4957728;28;19915;-88
2021/06/02 09:42:01;;;;;;;;;;;;;;;;;;4952247;28;20325;-85
2021/06/02 09:44:26;;;;;;;;;;;;;;;;;;4963404;28;19953;-87
2021/06/02 09:46:51;;;;;;;;;;;;;;;;;;4957105;28;20380;-84
2021/06/02 09:49:21;;;;;;;;;;;;;;;;;;4947453;28;19918;-86
2021/06/02 09:51:47;;;;;;;;;;;;;;;;;;4955322;28;19953;-85
2021/06/02 09:54:12;;;;;;;;;;;;;;;;;;4955317;28;19969;-83
2021/06/02 09:56:37;;;;;;;;;;;;;;;;;;4956503;28;19981;-86
2021/06/02 09:59:03;;;;;;;;;;;;;;;;;;4974039;28;19954;-85
2021/06/02 10:01:29;;;;;;;;;;;;;;;;;;4957542;28;20260;-85
2021/06/02 10:03:55;;;;;;;;;;;;;;;;;;4976857;28;19920;-85
2021/06/02 10:08:48;;;;;;;;;;;;;;;;;;4974581;28;19917;-84
2021/06/02 10:11:14;;;;;;;;;;;;;;;;;;4957839;28;19918;-84
2021/06/02 10:13:39;;;;;;;;;;;;;;;;;;4972963;28;20272;-85
2021/06/02 10:16:04;;;;;;;;;;;;;;;;;;4952905;28;20041;-87
2021/06/02 10:18:29;;;;;;;;;;;;;;;;;;4968761;28;19957;-84
2021/06/02 10:20:55;;;;;;;;;;;;;;;;;;4959313;28;20013;-86
2021/06/02 10:23:20;;;;;;;;;;;;;;;;;;4955388;29;19921;-85
2021/06/02 10:25:46;;;;;;;;;;;;;;;;;;4946822;29;19919;-85
2021/06/02 10:28:11;;;;;;;;;;;;;;;;;;4944393;29;19936;-85
2021/06/02 10:30:36;;;;;;;;;;;;;;;;;;4959978;29;19914;-85
2021/06/02 10:33:01;;;;;;;;;;;;;;;;;;4946270;29;19938;-87
2021/06/02 10:35:28;;;;;;;;;;;;;;;;;;4961197;29;19970;-83
2021/06/02 10:37:53;;;;;;;;;;;;;;;;;;4961076;29;19942;-85
2021/06/02 10:40:18;;;;;;;;;;;;;;;;;;4961373;29;20028;-84
2021/06/02 10:42:44;;;;;;;;;;;;;;;;;;4962085;29;19965;-86
2021/06/02 10:45:10;;;;;;;;;;;;;;;;;;4966674;29;19974;-88
2021/06/02 10:47:35;;;;;;;;;;;;;;;;;;4947906;29;19918;-87
2021/06/02 10:50:01;;;;;;;;;;;;;;;;;;4964989;29;19917;-89
2021/06/02 10:52:26;;;;;;;;;;;;;;;;;;4949251;29;19950;-86
2021/06/02 10:54:51;;;;;;;;;;;;;;;;;;4953139;29;19910;-84
2021/06/02 10:57:16;;;;;;;;;;;;;;;;;;4958838;29;19926;-83
2021/06/02 10:59:42;;;;;;;;;;;;;;;;;;4971743;29;19917;-86
2021/06/02 11:02:09;;;;;;;;;;;;;;;;;;4945338;29;19945;-86
2021/06/02 11:04:35;;;;;;;;;;;;;;;;;;4945925;29;19910;-86
2021/06/02 11:07:00;;;;;;;;;;;;;;;;;;4944378;29;20308;-85
2021/06/02 11:09:25;;;;;;;;;;;;;;;;;;4966853;28;19914;-85
2021/06/02 11:11:50;;;;;;;;;;;;;;;;;;4953047;28;19926;-83
2021/06/02 11:14:16;;;;;;;;;;;;;;;;;;4965567;28;19914;-84
2021/06/02 11:16:41;;;;;;;;;;;;;;;;;;4965398;28;20305;-87
2021/06/02 11:19:06;;;;;;;;;;;;;;;;;;4950464;28;19941;-85
2021/06/02 11:21:31;;;;;;;;;;;;;;;;;;4941345;29;20348;-87
2021/06/02 11:23:56;;;;;;;;;;;;;;;;;;4943241;29;19917;-84
2021/06/02 11:26:22;;;;;;;;;;;;;;;;;;4958686;28;20360;-83
2021/06/02 11:28:48;;;;;;;;;;;;;;;;;;4943170;29;19938;-84
2021/06/02 11:31:13;;;;;;;;;;;;;;;;;;4945244;29;19918;-86
2021/06/02 11:33:38;;;;;;;;;;;;;;;;;;4946022;29;20049;-88
2021/06/02 11:36:04;;;;;;;;;;;;;;;;;;4945682;29;20010;-89
2021/06/02 11:38:29;;;;;;;;;;;;;;;;;;4947557;29;19917;-86
2021/06/02 11:40:54;;;;;;;;;;;;;;;;;;4965372;29;19934;-86
2021/06/02 11:43:20;;;;;;;;;;;;;;;;;;4949617;29;19968;-86
2021/06/02 11:45:47;;;;;;;;;;;;;;;;;;4947036;29;20306;-85
2021/06/02 11:48:13;;;;;;;;;;;;;;;;;;4943822;29;19906;-89
2021/06/02 11:50:38;;;;;;;;;;;;;;;;;;4960403;29;20001;-88
2021/06/02 11:53:03;;;;;;;;;;;;;;;;;;4943454;29;19915;-84
2021/06/02 11:55:28;;;;;;;;;;;;;;;;;;4945632;29;19910;-90
2021/06/02 11:57:53;;;;;;;;;;;;;;;;;;4962519;28;20192;-88
2021/06/02 12:00:18;;;;;;;;;;;;;;;;;;4963854;28;19925;-88
2021/06/02 12:02:44;;;;;;;;;;;;;;;;;;4963816;28;19962;-88
2021/06/02 12:05:09;;;;;;;;;;;;;;;;;;4949030;29;19978;-89
2021/06/02 12:07:34;;;;;;;;;;;;;;;;;;4948772;29;20531;-86
2021/06/02 12:10:01;;;;;;;;;;;;;;;;;;4950447;29;19918;-89
2021/06/02 12:12:26;;;;;;;;;;;;;;;;;;4951979;29;19923;-90
2021/06/02 12:14:57;;;;;;;;;;;;;;;;;;4951919;29;19911;-90
2021/06/02 12:17:25;;;;;;;;;;;;;;;;;;4952646;29;19910;-90
2021/06/02 12:19:50;;;;;;;;;;;;;;;;;;4952560;29;19911;-89
2021/06/02 12:22:20;;;;;;;;;;;;;;;;;;4954759;29;19915;-90
2021/06/02 12:24:48;;;;;;;;;;;;;;;;;;4970518;29;19975;-89
2021/06/02 12:27:13;;;;;;;;;;;;;;;;;;4949813;29;20269;-88
2021/06/02 12:29:38;;;;;;;;;;;;;;;;;;4947942;29;20281;-88
2021/06/02 12:32:04;;;;;;;;;;;;;;;;;;4965340;28;19982;-87
2021/06/02 12:34:32;;;;;;;;;;;;;;;;;;4948377;29;19918;-88
2021/06/02 12:36:57;;;;;;;;;;;;;;;;;;4951649;29;19981;-88
2021/06/02 12:39:36;;;;;;;;;;;;;;;;;;4966068;28;19914;-88
2021/06/02 12:42:01;;;;;;;;;;;;;;;;;;4948906;29;19981;-91
2021/06/02 12:44:27;;;;;;;;;;;;;;;;;;4967906;28;19910;-90
2021/06/02 12:46:54;;;;;;;;;;;;;;;;;;4953509;29;19918;-90
2021/06/02 12:49:19;;;;;;;;;;;;;;;;;;4953029;29;19911;-89
2021/06/02 12:51:44;;;;;;;;;;;;;;;;;;4951257;29;19929;-89
2021/06/02 12:54:09;;;;;;;;;;;;;;;;;;4966758;28;19911;-89
2021/06/02 12:56:35;;;;;;;;;;;;;;;;;;4966516;28;19923;-89
2021/06/02 12:59:00;;;;;;;;;;;;;;;;;;4951885;29;19911;-88
2021/06/02 13:01:32;;;;;;;;;;;;;;;;;;4978874;23;20014;-90
2021/06/02 13:03:58;;;;;;;;;;;;;;;;;;4973869;28;19914;-90
2021/06/02 13:06:24;;;;;;;;;;;;;;;;;;4974348;28;19910;-89
2021/06/02 13:11:30;;;;;;;;;;;;;;;;;;5072975;23;20391;-90
2021/06/02 13:13:57;;;;;;;;;;;;;;;;;;5012104;28;19916;-87
2021/06/02 13:16:22;;;;;;;;;;;;;;;;;;4993341;28;19950;-88
2021/06/02 13:18:47;;;;;;;;;;;;;;;;;;4993358;28;19974;-89
2021/06/02 13:21:13;;;;;;;;;;;;;;;;;;5010337;28;19972;-91
2021/06/02 13:23:42;;;;;;;;;;;;;;;;;;5029083;23;20020;-89
2021/06/02 13:26:07;;;;;;;;;;;;;;;;;;4992395;28;19909;-90
2021/06/02 13:28:42;;;;;;;;;;;;;;;;;;4993163;28;20287;-88
2021/06/02 13:31:11;;;;;;;;;;;;;;;;;;4992284;28;19918;-89
2021/06/02 13:33:39;;;;;;;;;;;;;;;;;;4992793;28;19914;-89
2021/06/02 13:36:04;;;;;;;;;;;;;;;;;;4993086;28;19921;-88
2021/06/02 13:38:29;;;;;;;;;;;;;;;;;;4995028;28;20311;-89
2021/06/02 13:41:06;;;;;;;;;;;;;;;;;;5000013;28;19914;-90
2021/06/02 13:43:36;;;;;;;;;;;;;;;;;;4995670;28;19910;-90
2021/06/02 13:46:05;;;;;;;;;;;;;;;;;;4993967;28;19910;-89
2021/06/02 13:48:36;;;;;;;;;;;;;;;;;;5006597;28;19918;-87
2021/06/02 13:51:15;;;;;;;;;;;;;;;;;;4993228;28;19941;-89
2021/06/02 13:53:40;;;;;;;;;;;;;;;;;;4993009;28;19913;-85
2021/06/02 13:56:05;;;;;;;;;;;;;;;;;;4996220;28;19978;-87
2021/06/02 13:58:30;;;;;;;;;;;;;;;;;;4975532;28;19921;-88
2021/06/02 14:00:55;;;;;;;;;;;;;;;;;;4973722;28;19974;-87
2021/06/02 14:03:20;;;;;;;;;;;;;;;;;;4968571;28;19918;-90
2021/06/02 14:05:45;;;;;;;;;;;;;;;;;;4967855;28;19917;-86
2021/06/02 14:08:11;;;;;;;;;;;;;;;;;;4995783;28;19917;-87
2021/06/02 14:10:36;;;;;;;;;;;;;;;;;;4988456;28;19917;-87
2021/06/02 14:13:04;;;;;;;;;;;;;;;;;;4993040;28;19910;-86
2021/06/02 14:15:29;;;;;;;;;;;;;;;;;;4968499;28;20463;-87
2021/06/02 14:17:55;;;;;;;;;;;;;;;;;;4989237;28;19924;-85
2021/06/02 14:20:21;;;;;;;;;;;;;;;;;;5000172;28;20004;-80
2021/06/02 14:22:46;;;;;;;;;;;;;;;;;;4995443;28;19976;-80
2021/06/02 14:25:16;;;;;;;;;;;;;;;;;;4995603;28;19910;-79
2021/06/02 14:27:41;;;;;;;;;;;;;;;;;;4970616;28;20355;-78
2021/06/02 14:30:06;;;;;;;;;;;;;;;;;;4959973;28;20368;-83
2021/06/02 14:32:31;;;;;;;;;;;;;;;;;;4958892;28;20308;-80
2021/06/02 14:34:56;;;;;;;;;;;;;;;;;;4959775;28;19925;-80
2021/06/02 14:37:22;;;;;;;;;;;;;;;;;;4977974;28;19917;-85
2021/06/02 14:39:47;;;;;;;;;;;;;;;;;;4995567;28;19917;-78
2021/06/02 14:42:12;;;;;;;;;;;;;;;;;;5000872;28;19914;-81
2021/06/02 14:44:38;;;;;;;;;;;;;;;;;;4967925;28;19977;-82
2021/06/02 14:47:03;;;;;;;;;;;;;;;;;;4979314;28;19957;-80
2021/06/02 14:49:28;;;;;;;;;;;;;;;;;;4975920;28;19910;-83
2021/06/02 14:51:57;;;;;;;;;;;;;;;;;;4994503;28;19918;-84
2021/06/02 14:54:22;;;;;;;;;;;;;;;;;;4996702;28;19965;-81
2021/06/02 14:56:47;;;;;;;;;;;;;;;;;;4977834;28;19917;-79
2021/06/02 14:59:12;;;;;;;;;;;;;;;;;;4996083;28;19933;-85
2021/06/02 15:01:37;;;;;;;;;;;;;;;;;;4971219;28;20368;-80
2021/06/02 15:04:02;;;;;;;;;;;;;;;;;;4980213;28;19919;-77
2021/06/02 15:06:27;;;;;;;;;;;;;;;;;;4986633;28;20299;-79
2021/06/02 15:08:52;;;;;;;;;;;;;;;;;;4995648;28;19925;-79
2021/06/02 15:11:19;;;;;;;;;;;;;;;;;;4995286;28;19917;-80
2021/06/02 15:13:44;;;;;;;;;;;;;;;;;;4963217;28;19914;-84
2021/06/02 15:16:09;;;;;;;;;;;;;;;;;;4960577;28;19917;-85
2021/06/02 15:18:34;;;;;;;;;;;;;;;;;;4960253;28;19917;-82
2021/06/02 15:20:59;;;;;;;;;;;;;;;;;;4976860;28;19928;-81
2021/06/02 15:23:25;;;;;;;;;;;;;;;;;;4987895;28;20005;-82
2021/06/02 15:25:50;;;;;;;;;;;;;;;;;;4976205;28;20276;-77
2021/06/02 15:28:15;;;;;;;;;;;;;;;;;;4975590;28;20368;-80
2021/06/02 15:30:40;;;;;;;;;;;;;;;;;;4976848;28;19917;-81
2021/06/02 15:33:05;;;;;;;;;;;;;;;;;;4958008;28;19929;-80
2021/06/02 15:35:30;;;;;;;;;;;;;;;;;;4957857;28;19910;-80
2021/06/02 15:37:56;;;;;;;;;;;;;;;;;;4958699;28;19910;-79
2021/06/02 15:40:21;;;;;;;;;;;;;;;;;;4976000;28;20323;-84
2021/06/02 15:42:47;;;;;;;;;;;;;;;;;;4977401;28;20360;-81
2021/06/02 15:45:12;;;;;;;;;;;;;;;;;;4978110;28;20463;-82
2021/06/02 15:47:37;;;;;;;;;;;;;;;;;;4977059;28;20370;-81
2021/06/02 15:50:02;;;;;;;;;;;;;;;;;;4975345;28;19910;-83
2021/06/02 15:52:28;;;;;;;;;;;;;;;;;;4976873;28;19918;-81
2021/06/02 15:54:53;;;;;;;;;;;;;;;;;;4976193;28;19917;-81
2021/06/02 15:57:18;;;;;;;;;;;;;;;;;;4975453;28;19917;-81
2021/06/02 15:59:43;;;;;;;;;;;;;;;;;;4958278;28;20339;-84
2021/06/02 16:02:08;;;;;;;;;;;;;;;;;;4961465;28;19917;-82
2021/06/02 16:04:33;;;;;;;;;;;;;;;;;;4976738;28;19915;-86
2021/06/02 16:06:59;;;;;;;;;;;;;;;;;;4976567;28;19949;-84
2021/06/02 16:09:24;;;;;;;;;;;;;;;;;;4977939;28;19938;-86
2021/06/02 16:11:49;;;;;;;;;;;;;;;;;;4958788;28;19918;-84
2021/06/02 16:14:14;;;;;;;;;;;;;;;;;;4975410;28;19914;-84
2021/06/02 16:16:40;;;;;;;;;;;;;;;;;;4975694;28;19939;-84
2021/06/02 16:19:05;;;;;;;;;;;;;;;;;;4960201;28;19965;-84
2021/06/02 16:21:30;;;;;;;;;;;;;;;;;;4975648;28;19911;-80
2021/06/02 16:23:55;;;;;;;;;;;;;;;;;;4957997;28;19926;-80
2021/06/02 16:26:20;;;;;;;;;;;;;;;;;;4962296;28;19910;-80
2021/06/02 16:28:45;;;;;;;;;;;;;;;;;;4983321;28;19918;-82
2021/06/02 16:31:10;;;;;;;;;;;;;;;;;;4964246;28;19925;-81
2021/06/02 16:33:36;;;;;;;;;;;;;;;;;;4976102;28;19921;-81
2021/06/02 16:36:01;;;;;;;;;;;;;;;;;;4976466;28;20376;-82
2021/06/02 16:38:26;;;;;;;;;;;;;;;;;;4975170;28;20320;-83
2021/06/02 16:40:51;;;;;;;;;;;;;;;;;;4975335;28;19928;-81